createdAt,value
2018-12-27T00:52:43.915Z,143.30
2018-12-27T00:55:25.867Z,150.17
2018-12-27T00:58:08.471Z,132.65
2018-12-27T01:01:02.043Z,141.63
2018-12-27T01:03:43.298Z,134.83
2018-12-27T01:06:25.386Z,134.03
2018-12-27T01:09:07.260Z,143.13
2018-12-27T01:11:47.146Z,141.23
2018-12-27T01:14:26.062Z,139.20
2018-12-27T01:17:07.051Z,149.13
2018-12-27T01:19:53.372Z,134.10
2018-12-27T01:22:35.211Z,140.07
2018-12-27T01:25:19.718Z,138.77
2018-12-27T01:28:01.540Z,149.13
2018-12-27T01:30:41.710Z,146.07
2018-12-27T01:33:32.492Z,141.98
2018-12-27T01:36:12.417Z,150.50
2018-12-27T01:38:53.190Z,138.87
2018-12-27T01:41:35.031Z,136.57
2018-12-27T01:44:17.431Z,145.40
2018-12-27T01:46:58.127Z,136.20
2018-12-27T01:49:38.472Z,145.93
2018-12-27T01:52:21.726Z,140.52
2018-12-27T01:55:03.005Z,149.43
2018-12-27T01:57:42.388Z,148.53
2018-12-27T02:00:22.577Z,157.37
2018-12-27T02:03:03.055Z,142.70
2018-12-27T02:05:43.130Z,148.60
2018-12-27T02:08:23.207Z,156.12
2018-12-27T02:11:04.806Z,144.77
2018-12-27T02:13:44.365Z,158.40
2018-12-27T02:16:28.239Z,151.70
2018-12-27T02:19:08.985Z,150.67
2018-12-27T02:21:54.715Z,168.60
2018-12-27T02:24:32.364Z,157.60
2018-12-27T02:27:10.968Z,154.50
2018-12-27T02:29:51.407Z,145.00
2018-12-27T02:32:31.185Z,157.70
2018-12-27T02:35:11.746Z,153.73
2018-12-27T02:37:53.182Z,159.20
2018-12-27T02:40:33.013Z,155.82
2018-12-27T02:43:13.090Z,152.17
2018-12-27T02:45:52.302Z,157.87
2018-12-27T02:48:32.106Z,152.17
2018-12-27T02:51:11.079Z,158.43
2018-12-27T02:53:51.087Z,156.23
2018-12-27T02:56:31.104Z,162.65
2018-12-27T02:59:11.145Z,155.70
2018-12-27T03:01:50.960Z,141.13
2018-12-27T03:04:31.074Z,155.52
2018-12-27T03:07:10.713Z,149.73
2018-12-27T03:09:54.980Z,156.20
2018-12-27T03:12:35.888Z,153.77
2018-12-27T03:15:15.626Z,153.67
2018-12-27T03:17:55.171Z,167.17
2018-12-27T03:20:38.425Z,159.03
2018-12-27T03:23:17.943Z,160.67
2018-12-27T03:26:00.596Z,160.83
2018-12-27T03:28:40.908Z,161.37
2018-12-27T03:31:24.427Z,167.00
2018-12-27T03:34:05.667Z,152.50
2018-12-27T03:36:46.959Z,154.17
2018-12-27T03:39:29.094Z,153.97
2018-12-27T03:42:11.256Z,152.53
2018-12-27T03:44:51.073Z,148.33
2018-12-27T03:47:32.448Z,156.07
2018-12-27T03:50:12.857Z,140.13
2018-12-27T03:52:54.034Z,148.90
2018-12-27T03:55:33.074Z,147.80
2018-12-27T03:58:20.307Z,139.03
2018-12-27T04:01:00.868Z,138.57
2018-12-27T04:03:40.639Z,147.50
2018-12-27T04:06:22.172Z,137.60
2018-12-27T04:09:02.461Z,148.63
2018-12-27T04:11:42.450Z,139.03
2018-12-27T04:14:22.653Z,139.72
2018-12-27T04:17:05.765Z,143.83
2018-12-27T04:19:47.438Z,135.07
2018-12-27T04:22:27.037Z,141.75
2018-12-27T04:25:12.823Z,145.60
2018-12-27T04:27:58.184Z,153.83
2018-12-27T04:30:38.186Z,143.00
2018-12-27T04:33:24.188Z,149.20
2018-12-27T04:36:04.018Z,138.50
2018-12-27T04:38:43.665Z,141.00
2018-12-27T04:41:22.763Z,138.50
2018-12-27T04:44:03.600Z,146.33
2018-12-27T04:46:43.389Z,130.07
2018-12-27T04:49:22.310Z,146.17
2018-12-27T04:52:01.960Z,131.87
2018-12-27T04:54:40.762Z,143.30
2018-12-27T04:57:20.804Z,144.60
2018-12-27T04:59:59.244Z,145.53
2018-12-27T05:02:39.072Z,141.70
2018-12-27T05:05:17.004Z,144.03
2018-12-27T05:07:56.275Z,143.57
2018-12-27T05:10:38.022Z,140.80
2018-12-27T05:13:17.236Z,150.77
2018-12-27T05:15:56.895Z,151.93
2018-12-27T05:18:40.247Z,139.03
2018-12-27T05:21:20.930Z,138.97
2018-12-27T05:24:03.327Z,132.73
2018-12-27T05:26:44.834Z,137.00
2018-12-27T05:29:24.304Z,142.40
2018-12-27T05:32:05.796Z,124.40
2018-12-27T05:34:46.793Z,138.60
2018-12-27T05:37:26.083Z,120.65
2018-12-27T05:40:05.652Z,138.87
2018-12-27T05:42:46.558Z,147.53
2018-12-27T05:45:28.286Z,140.40
2018-12-27T05:48:06.343Z,135.83
2018-12-27T05:50:46.619Z,136.80
2018-12-27T05:53:27.580Z,136.50
2018-12-27T05:56:06.568Z,127.87
2018-12-27T05:58:46.684Z,133.93
2018-12-27T06:01:38.842Z,143.73
2018-12-27T06:04:22.144Z,132.87
2018-12-27T06:07:02.428Z,139.43
2018-12-27T06:09:42.942Z,131.10
2018-12-27T06:12:24.583Z,133.27
2018-12-27T06:15:04.156Z,146.13
2018-12-27T06:17:48.270Z,130.30
2018-12-27T06:20:35.631Z,143.02
2018-12-27T06:23:18.163Z,135.70
2018-12-27T06:25:58.092Z,132.27
2018-12-27T06:28:47.495Z,127.93
2018-12-27T06:31:37.971Z,132.00
2018-12-27T06:34:43.313Z,135.90
2018-12-27T06:37:39.275Z,130.87
2018-12-27T06:40:17.529Z,132.30
2018-12-27T06:43:04.089Z,126.30
2018-12-27T06:45:59.204Z,133.57
2018-12-27T06:48:39.468Z,122.13
2018-12-27T06:51:20.365Z,128.30
2018-12-27T06:54:07.327Z,130.70
2018-12-27T06:56:48.009Z,125.67
2018-12-27T06:59:34.787Z,116.03
2018-12-27T07:02:21.017Z,124.63
2018-12-27T07:05:18.010Z,120.07
2018-12-27T07:07:59.515Z,126.30
2018-12-27T07:10:50.307Z,123.53
2018-12-27T07:13:28.372Z,120.27
2018-12-27T07:16:11.518Z,126.63
2018-12-27T07:18:50.860Z,123.13
2018-12-27T07:21:32.997Z,128.43
2018-12-27T07:24:30.425Z,126.47
2018-12-27T07:27:21.881Z,127.20
2018-12-27T07:30:13.140Z,128.47
2018-12-27T07:32:53.236Z,122.00
2018-12-27T07:35:37.719Z,126.63
2018-12-27T07:38:26.554Z,133.03
2018-12-27T07:41:08.661Z,124.27
2018-12-27T07:43:49.728Z,130.50
2018-12-27T07:46:31.576Z,129.15
2018-12-27T07:49:24.245Z,114.43
2018-12-27T07:52:05.404Z,128.53
2018-12-27T07:54:57.739Z,125.43
2018-12-27T07:57:39.717Z,118.13
2018-12-27T08:00:21.835Z,120.47
2018-12-27T08:03:07.677Z,120.13
2018-12-27T08:05:48.465Z,112.70
2018-12-27T08:08:44.664Z,116.30
2018-12-27T08:11:24.230Z,119.00
2018-12-27T08:14:05.323Z,112.40
2018-12-27T08:16:53.326Z,110.50
2018-12-27T08:19:31.545Z,112.77
2018-12-27T08:22:28.064Z,106.50
2018-12-27T08:25:09.176Z,118.17
2018-12-27T08:27:48.965Z,103.73
2018-12-27T08:30:31.184Z,109.63
2018-12-27T08:33:18.292Z,105.83
2018-12-27T08:35:54.111Z,106.97
2018-12-27T08:38:29.622Z,99.43
2018-12-27T08:41:07.270Z,107.52
2018-12-27T08:43:48.169Z,107.30
2018-12-27T08:46:27.584Z,106.47
2018-12-27T08:49:09.682Z,96.73
2018-12-27T08:51:52.728Z,101.20
2018-12-27T08:54:33.056Z,95.17
2018-12-27T08:57:31.054Z,104.70
2018-12-27T09:00:10.798Z,101.10
2018-12-27T09:02:56.685Z,101.83
2018-12-27T09:05:43.004Z,91.87
2018-12-27T09:08:28.833Z,102.50
2018-12-27T09:11:11.969Z,106.73
2018-12-27T09:14:02.359Z,99.63
2018-12-27T09:16:46.902Z,98.30
2018-12-27T09:19:31.164Z,95.40
2018-12-27T09:22:14.378Z,95.07
2018-12-27T09:25:07.893Z,95.70
2018-12-27T09:28:02.058Z,93.60
2018-12-27T09:30:41.714Z,91.67
2018-12-27T09:33:36.932Z,89.27
2018-12-27T09:36:16.187Z,89.28
2018-12-27T09:38:55.264Z,93.70
2018-12-27T09:41:37.952Z,91.73
2018-12-27T09:44:17.085Z,87.47
2018-12-27T09:47:07.605Z,90.53
2018-12-27T09:49:49.559Z,87.70
2018-12-27T09:52:29.244Z,86.93
2018-12-27T09:55:09.534Z,84.50
2018-12-27T09:57:50.359Z,90.20
2018-12-27T10:00:34.819Z,97.72
2018-12-27T10:03:14.796Z,85.27
2018-12-27T10:08:52.602Z,85.30
2018-12-27T10:11:42.328Z,93.77
2018-12-27T10:14:41.023Z,83.60
2018-12-27T10:17:53.722Z,83.62
2018-12-27T10:20:50.475Z,91.77
2018-12-27T10:23:51.134Z,87.67
2018-12-27T10:26:37.168Z,79.75
2018-12-27T10:29:43.043Z,83.03
2018-12-27T10:32:37.866Z,83.85
2018-12-27T10:35:50.129Z,82.90
2018-12-27T10:38:52.025Z,80.07
2018-12-27T10:42:05.789Z,83.70
2018-12-27T10:48:25.779Z,82.60
2018-12-27T10:54:58.187Z,80.73
2018-12-27T10:58:06.123Z,82.27
2018-12-27T11:01:28.874Z,82.63
2018-12-27T11:05:05.852Z,79.07
2018-12-27T11:07:50.146Z,77.50
2018-12-27T11:10:32.921Z,84.43
2018-12-27T11:13:13.075Z,87.63
2018-12-27T11:15:55.002Z,83.17
2018-12-27T11:18:37.594Z,82.47
2018-12-27T11:21:19.374Z,78.63
2018-12-27T11:23:58.623Z,87.03
2018-12-27T11:26:40.782Z,85.97
2018-12-27T11:30:07.349Z,82.55
2018-12-27T11:33:10.941Z,84.23
2018-12-27T11:35:57.433Z,79.30
2018-12-27T11:38:55.634Z,83.50
2018-12-27T11:41:46.289Z,81.87
2018-12-27T11:44:53.801Z,86.30
2018-12-27T11:48:02.668Z,86.20
2018-12-27T11:51:07.012Z,83.13
2018-12-27T11:54:14.885Z,87.47
2018-12-27T11:57:21.883Z,81.30
2018-12-27T12:00:15.730Z,83.93
2018-12-27T12:03:15.071Z,79.23
2018-12-27T12:06:08.664Z,75.70
2018-12-27T12:09:02.963Z,83.70
2018-12-27T12:11:47.403Z,90.80
2018-12-27T12:18:04.494Z,82.90
2018-12-27T12:21:18.054Z,77.20
2018-12-27T12:24:00.889Z,85.53
2018-12-27T12:26:56.362Z,90.10
2018-12-27T12:30:09.493Z,85.13
2018-12-27T12:32:58.567Z,84.30
2018-12-27T15:08:49.420Z,61.77
